sensor_id;sensor_type;location;lat;lon;timestamp;pressure;altitude;pressure_sealevel;temperature;humidity
63281;BME280;49406;51.044;3.766;2024-02-21T00:00:36;102385.42;;;10.29;100.00
63281;BME280;49406;51.044;3.766;2024-02-21T00:03:12;102388.33;;;10.27;100.00
63281;BME280;49406;51.044;3.766;2024-02-21T00:05:47;102383.91;;;10.21;100.00
63281;BME280;49406;51.044;3.766;2024-02-21T00:08:21;102379.86;;;10.15;100.00
63281;BME280;49406;51.044;3.766;2024-02-21T00:10:56;102380.73;;;10.06;100.00
63281;BME280;49406;51.044;3.766;2024-02-21T00:13:30;102380.85;;;9.99;100.00
63281;BME280;49406;51.044;3.766;2024-02-21T00:16:06;102380.20;;;10.00;100.00
63281;BME280;49406;51.044;3.766;2024-02-21T00:18:40;102376.93;;;10.02;100.00
63281;BME280;49406;51.044;3.766;2024-02-21T00:21:15;102375.73;;;10.03;100.00
63281;BME280;49406;51.044;3.766;2024-02-21T00:23:51;102377.34;;;10.04;100.00
63281;BME280;49406;51.044;3.766;2024-02-21T00:26:25;102367.60;;;10.00;100.00
63281;BME280;49406;51.044;3.766;2024-02-21T00:29:00;102350.02;;;9.96;100.00
63281;BME280;49406;51.044;3.766;2024-02-21T00:31:34;102339.80;;;9.94;100.00
63281;BME280;49406;51.044;3.766;2024-02-21T00:34:09;102340.55;;;9.90;100.00
63281;BME280;49406;51.044;3.766;2024-02-21T00:36:44;102329.01;;;9.80;100.00
63281;BME280;49406;51.044;3.766;2024-02-21T00:39:19;102337.34;;;9.73;100.00
63281;BME280;49406;51.044;3.766;2024-02-21T00:41:53;102337.34;;;9.64;100.00
63281;BME280;49406;51.044;3.766;2024-02-21T00:44:28;102330.54;;;9.64;100.00
63281;BME280;49406;51.044;3.766;2024-02-21T00:47:02;102330.36;;;9.64;100.00
63281;BME280;49406;51.044;3.766;2024-02-21T00:49:37;102315.06;;;9.61;100.00
63281;BME280;49406;51.044;3.766;2024-02-21T00:52:11;102314.92;;;9.57;100.00
63281;BME280;49406;51.044;3.766;2024-02-21T00:54:46;102305.45;;;9.57;100.00
63281;BME280;49406;51.044;3.766;2024-02-21T00:57:22;102305.42;;;9.55;100.00
63281;BME280;49406;51.044;3.766;2024-02-21T00:59:57;102308.40;;;9.51;100.00
63281;BME280;49406;51.044;3.766;2024-02-21T01:02:31;102308.52;;;9.44;100.00
63281;BME280;49406;51.044;3.766;2024-02-21T01:05:06;102306.58;;;9.39;100.00
63281;BME280;49406;51.044;3.766;2024-02-21T01:07:40;102305.91;;;9.40;100.00
63281;BME280;49406;51.044;3.766;2024-02-21T01:10:14;102301.75;;;9.41;100.00
63281;BME280;49406;51.044;3.766;2024-02-21T01:12:50;102290.34;;;9.39;100.00
63281;BME280;49406;51.044;3.766;2024-02-21T01:15:24;102285.41;;;9.38;100.00
63281;BME280;49406;51.044;3.766;2024-02-21T01:17:59;102281.83;;;9.35;100.00
63281;BME280;49406;51.044;3.766;2024-02-21T01:20:33;102274.66;;;9.30;100.00
63281;BME280;49406;51.044;3.766;2024-02-21T01:23:08;102263.80;;;9.24;100.00
63281;BME280;49406;51.044;3.766;2024-02-21T01:25:42;102257.54;;;9.20;100.00
63281;BME280;49406;51.044;3.766;2024-02-21T01:28:17;102265.59;;;9.25;100.00
63281;BME280;49406;51.044;3.766;2024-02-21T01:30:51;102261.59;;;9.25;100.00
63281;BME280;49406;51.044;3.766;2024-02-21T01:33:26;102260.04;;;9.25;100.00
63281;BME280;49406;51.044;3.766;2024-02-21T01:36:00;102263.69;;;9.25;100.00
63281;BME280;49406;51.044;3.766;2024-02-21T01:38:35;102252.86;;;9.25;100.00
63281;BME280;49406;51.044;3.766;2024-02-21T01:41:09;102260.37;;;9.25;100.00
63281;BME280;49406;51.044;3.766;2024-02-21T01:43:44;102258.64;;;9.21;100.00
63281;BME280;49406;51.044;3.766;2024-02-21T01:46:19;102257.95;;;9.17;100.00
63281;BME280;49406;51.044;3.766;2024-02-21T01:48:54;102265.55;;;9.20;100.00
63281;BME280;49406;51.044;3.766;2024-02-21T01:51:27;102267.02;;;9.21;100.00
63281;BME280;49406;51.044;3.766;2024-02-21T01:54:02;102266.15;;;9.22;100.00
63281;BME280;49406;51.044;3.766;2024-02-21T01:56:36;102261.61;;;9.22;100.00
63281;BME280;49406;51.044;3.766;2024-02-21T01:59:11;102255.27;;;9.19;100.00
63281;BME280;49406;51.044;3.766;2024-02-21T02:01:47;102261.40;;;9.15;100.00
63281;BME280;49406;51.044;3.766;2024-02-21T02:04:22;102267.61;;;9.13;100.00
63281;BME280;49406;51.044;3.766;2024-02-21T02:06:59;102262.73;;;9.19;100.00
63281;BME280;49406;51.044;3.766;2024-02-21T02:09:34;102262.96;;;9.20;100.00
63281;BME280;49406;51.044;3.766;2024-02-21T02:12:10;102259.12;;;9.20;100.00
63281;BME280;49406;51.044;3.766;2024-02-21T02:14:44;102254.27;;;9.21;100.00
63281;BME280;49406;51.044;3.766;2024-02-21T02:17:18;102244.59;;;9.23;100.00
63281;BME280;49406;51.044;3.766;2024-02-21T02:19:53;102240.72;;;9.27;100.00
63281;BME280;49406;51.044;3.766;2024-02-21T02:22:29;102242.26;;;9.31;100.00
63281;BME280;49406;51.044;3.766;2024-02-21T02:25:07;102240.98;;;9.29;100.00
63281;BME280;49406;51.044;3.766;2024-02-21T02:27:45;102238.85;;;9.34;100.00
63281;BME280;49406;51.044;3.766;2024-02-21T02:30:18;102237.64;;;9.39;100.00
63281;BME280;49406;51.044;3.766;2024-02-21T02:32:52;102238.65;;;9.39;100.00
63281;BME280;49406;51.044;3.766;2024-02-21T02:35:27;102243.89;;;9.38;100.00
63281;BME280;49406;51.044;3.766;2024-02-21T02:38:01;102241.68;;;9.40;100.00
63281;BME280;49406;51.044;3.766;2024-02-21T02:40:37;102240.75;;;9.39;100.00
63281;BME280;49406;51.044;3.766;2024-02-21T02:43:13;102227.27;;;9.32;100.00
63281;BME280;49406;51.044;3.766;2024-02-21T02:45:48;102214.81;;;9.25;100.00
63281;BME280;49406;51.044;3.766;2024-02-21T02:48:23;102203.31;;;9.25;100.00
63281;BME280;49406;51.044;3.766;2024-02-21T02:50:57;102197.67;;;9.29;100.00
63281;BME280;49406;51.044;3.766;2024-02-21T02:53:32;102192.17;;;9.26;100.00
63281;BME280;49406;51.044;3.766;2024-02-21T02:56:06;102185.42;;;9.23;100.00
63281;BME280;49406;51.044;3.766;2024-02-21T02:58:41;102172.60;;;9.21;100.00
63281;BME280;49406;51.044;3.766;2024-02-21T03:01:16;102166.05;;;9.19;100.00
63281;BME280;49406;51.044;3.766;2024-02-21T03:03:50;102161.02;;;9.14;100.00
63281;BME280;49406;51.044;3.766;2024-02-21T03:06:25;102152.58;;;9.07;100.00
63281;BME280;49406;51.044;3.766;2024-02-21T03:08:59;102156.66;;;9.09;100.00
63281;BME280;49406;51.044;3.766;2024-02-21T03:11:34;102148.77;;;9.13;100.00
63281;BME280;49406;51.044;3.766;2024-02-21T03:14:08;102140.00;;;9.12;100.00
63281;BME280;49406;51.044;3.766;2024-02-21T03:16:43;102137.58;;;9.12;100.00
63281;BME280;49406;51.044;3.766;2024-02-21T03:19:17;102132.73;;;9.13;100.00
63281;BME280;49406;51.044;3.766;2024-02-21T03:21:52;102132.21;;;9.14;100.00
63281;BME280;49406;51.044;3.766;2024-02-21T03:24:26;102134.05;;;9.11;100.00
63281;BME280;49406;51.044;3.766;2024-02-21T03:27:03;102130.85;;;9.09;100.00
63281;BME280;49406;51.044;3.766;2024-02-21T03:29:38;102130.13;;;9.13;100.00
63281;BME280;49406;51.044;3.766;2024-02-21T03:32:13;102129.15;;;9.57;100.00
63281;BME280;49406;51.044;3.766;2024-02-21T03:34:47;102121.07;;;9.51;100.00
63281;BME280;49406;51.044;3.766;2024-02-21T03:37:22;102117.06;;;9.24;100.00
63281;BME280;49406;51.044;3.766;2024-02-21T03:39:55;102119.67;;;9.19;100.00
63281;BME280;49406;51.044;3.766;2024-02-21T03:42:29;102120.13;;;9.12;100.00
63281;BME280;49406;51.044;3.766;2024-02-21T03:45:05;102119.91;;;9.11;100.00
63281;BME280;49406;51.044;3.766;2024-02-21T03:47:40;102116.48;;;9.12;100.00
63281;BME280;49406;51.044;3.766;2024-02-21T03:50:15;102116.09;;;9.11;100.00
63281;BME280;49406;51.044;3.766;2024-02-21T03:52:49;102118.36;;;9.11;100.00
63281;BME280;49406;51.044;3.766;2024-02-21T03:55:24;102117.10;;;9.10;100.00
63281;BME280;49406;51.044;3.766;2024-02-21T03:57:58;102116.23;;;9.05;100.00
63281;BME280;49406;51.044;3.766;2024-02-21T04:00:33;102116.39;;;9.00;100.00
63281;BME280;49406;51.044;3.766;2024-02-21T04:03:08;102114.70;;;9.02;100.00
63281;BME280;49406;51.044;3.766;2024-02-21T04:05:42;102123.87;;;9.05;100.00
63281;BME280;49406;51.044;3.766;2024-02-21T04:08:16;102119.35;;;9.05;100.00
63281;BME280;49406;51.044;3.766;2024-02-21T04:10:51;102120.57;;;9.05;100.00
63281;BME280;49406;51.044;3.766;2024-02-21T04:13:26;102116.73;;;9.05;100.00
63281;BME280;49406;51.044;3.766;2024-02-21T04:16:00;102116.79;;;9.07;100.00
63281;BME280;49406;51.044;3.766;2024-02-21T04:18:36;102115.11;;;9.03;100.00
63281;BME280;49406;51.044;3.766;2024-02-21T04:21:13;102110.02;;;9.02;100.00
63281;BME280;49406;51.044;3.766;2024-02-21T04:23:48;102106.17;;;9.07;100.00
63281;BME280;49406;51.044;3.766;2024-02-21T04:26:23;102107.86;;;9.10;100.00
63281;BME280;49406;51.044;3.766;2024-02-21T04:28:57;102102.30;;;9.11;100.00
63281;BME280;49406;51.044;3.766;2024-02-21T04:31:33;102098.84;;;9.12;100.00
63281;BME280;49406;51.044;3.766;2024-02-21T04:34:08;102095.92;;;9.13;100.00
63281;BME280;49406;51.044;3.766;2024-02-21T04:36:42;102092.02;;;9.12;100.00
63281;BME280;49406;51.044;3.766;2024-02-21T04:39:18;102084.25;;;9.09;100.00
63281;BME280;49406;51.044;3.766;2024-02-21T04:41:52;102084.55;;;9.12;100.00
63281;BME280;49406;51.044;3.766;2024-02-21T04:44:27;102083.02;;;9.14;100.00
63281;BME280;49406;51.044;3.766;2024-02-21T04:47:01;102077.29;;;9.14;100.00
63281;BME280;49406;51.044;3.766;2024-02-21T04:49:36;102071.67;;;9.14;100.00
63281;BME280;49406;51.044;3.766;2024-02-21T04:52:11;102071.16;;;9.40;100.00
63281;BME280;49406;51.044;3.766;2024-02-21T04:54:46;102060.05;;;9.31;100.00
63281;BME280;49406;51.044;3.766;2024-02-21T04:57:20;102056.52;;;9.20;100.00
63281;BME280;49406;51.044;3.766;2024-02-21T04:59:55;102051.23;;;9.18;100.00
63281;BME280;49406;51.044;3.766;2024-02-21T05:02:29;102044.17;;;9.16;100.00
63281;BME280;49406;51.044;3.766;2024-02-21T05:05:04;102037.73;;;9.16;100.00
63281;BME280;49406;51.044;3.766;2024-02-21T05:07:39;102032.34;;;9.17;100.00
63281;BME280;49406;51.044;3.766;2024-02-21T05:10:14;102032.73;;;9.18;100.00
63281;BME280;49406;51.044;3.766;2024-02-21T05:12:48;102028.23;;;9.19;100.00
63281;BME280;49406;51.044;3.766;2024-02-21T05:15:23;102019.04;;;9.21;100.00
63281;BME280;49406;51.044;3.766;2024-02-21T05:17:58;102021.11;;;9.20;100.00
63281;BME280;49406;51.044;3.766;2024-02-21T05:20:32;102013.92;;;9.19;100.00
63281;BME280;49406;51.044;3.766;2024-02-21T05:23:07;102014.05;;;9.18;100.00
63281;BME280;49406;51.044;3.766;2024-02-21T05:25:41;102016.70;;;9.24;100.00
63281;BME280;49406;51.044;3.766;2024-02-21T05:28:16;102010.84;;;9.26;100.00
63281;BME280;49406;51.044;3.766;2024-02-21T05:30:51;102010.05;;;9.29;100.00
63281;BME280;49406;51.044;3.766;2024-02-21T05:33:25;102003.77;;;9.29;100.00
63281;BME280;49406;51.044;3.766;2024-02-21T05:36:00;101996.98;;;9.24;100.00
63281;BME280;49406;51.044;3.766;2024-02-21T05:38:35;101994.64;;;9.22;100.00
63281;BME280;49406;51.044;3.766;2024-02-21T05:41:09;101995.14;;;9.26;100.00
63281;BME280;49406;51.044;3.766;2024-02-21T05:43:44;101990.88;;;9.24;100.00
63281;BME280;49406;51.044;3.766;2024-02-21T05:46:21;101977.20;;;9.22;100.00
63281;BME280;49406;51.044;3.766;2024-02-21T05:48:56;101975.41;;;9.21;100.00
63281;BME280;49406;51.044;3.766;2024-02-21T05:51:33;101974.74;;;9.16;100.00
63281;BME280;49406;51.044;3.766;2024-02-21T05:54:08;101965.75;;;9.13;100.00
63281;BME280;49406;51.044;3.766;2024-02-21T05:56:46;101955.75;;;9.17;100.00
63281;BME280;49406;51.044;3.766;2024-02-21T05:59:21;101953.98;;;9.16;100.00
63281;BME280;49406;51.044;3.766;2024-02-21T06:01:59;101946.38;;;9.13;100.00
63281;BME280;49406;51.044;3.766;2024-02-21T06:04:36;101941.69;;;9.13;100.00
63281;BME280;49406;51.044;3.766;2024-02-21T06:07:12;101940.05;;;9.12;100.00
63281;BME280;49406;51.044;3.766;2024-02-21T06:09:47;101946.70;;;9.12;100.00
63281;BME280;49406;51.044;3.766;2024-02-21T06:12:21;101945.71;;;9.08;100.00
63281;BME280;49406;51.044;3.766;2024-02-21T06:14:56;101945.45;;;9.05;100.00
63281;BME280;49406;51.044;3.766;2024-02-21T06:17:31;101946.16;;;9.11;100.00
63281;BME280;49406;51.044;3.766;2024-02-21T06:20:07;101945.02;;;9.14;100.00
63281;BME280;49406;51.044;3.766;2024-02-21T06:22:42;101945.20;;;9.14;100.00
63281;BME280;49406;51.044;3.766;2024-02-21T06:25:15;101940.14;;;9.14;100.00
63281;BME280;49406;51.044;3.766;2024-02-21T06:27:50;101934.60;;;9.15;100.00
63281;BME280;49406;51.044;3.766;2024-02-21T06:30:24;101934.83;;;9.17;100.00
63281;BME280;49406;51.044;3.766;2024-02-21T06:32:59;101935.45;;;9.15;100.00
63281;BME280;49406;51.044;3.766;2024-02-21T06:35:35;101932.48;;;9.15;100.00
63281;BME280;49406;51.044;3.766;2024-02-21T06:38:12;101931.41;;;9.19;100.00
63281;BME280;49406;51.044;3.766;2024-02-21T06:40:47;101934.59;;;9.21;100.00
63281;BME280;49406;51.044;3.766;2024-02-21T06:43:25;101928.52;;;9.22;100.00
63281;BME280;49406;51.044;3.766;2024-02-21T06:45:59;101925.77;;;9.24;100.00
63281;BME280;49406;51.044;3.766;2024-02-21T06:48:35;101917.46;;;9.25;100.00
63281;BME280;49406;51.044;3.766;2024-02-21T06:51:09;101906.89;;;9.27;100.00
63281;BME280;49406;51.044;3.766;2024-02-21T06:53:44;101905.50;;;9.28;100.00
63281;BME280;49406;51.044;3.766;2024-02-21T06:56:19;101898.95;;;9.30;100.00
63281;BME280;49406;51.044;3.766;2024-02-21T06:58:53;101891.56;;;9.28;100.00
63281;BME280;49406;51.044;3.766;2024-02-21T07:01:28;101891.54;;;9.28;100.00
63281;BME280;49406;51.044;3.766;2024-02-21T07:04:03;101891.31;;;9.32;100.00
63281;BME280;49406;51.044;3.766;2024-02-21T07:06:37;101887.02;;;9.34;100.00
63281;BME280;49406;51.044;3.766;2024-02-21T07:09:11;101883.80;;;9.38;100.00
63281;BME280;49406;51.044;3.766;2024-02-21T07:11:46;101882.60;;;9.39;100.00
63281;BME280;49406;51.044;3.766;2024-02-21T07:14:21;101886.52;;;9.41;100.00
63281;BME280;49406;51.044;3.766;2024-02-21T07:16:55;101880.73;;;9.41;100.00
63281;BME280;49406;51.044;3.766;2024-02-21T07:19:30;101881.54;;;9.39;100.00
63281;BME280;49406;51.044;3.766;2024-02-21T07:22:05;101875.72;;;9.42;100.00
63281;BME280;49406;51.044;3.766;2024-02-21T07:24:39;101873.20;;;9.46;100.00
63281;BME280;49406;51.044;3.766;2024-02-21T07:27:15;101865.00;;;9.45;100.00
63281;BME280;49406;51.044;3.766;2024-02-21T07:29:49;101851.61;;;9.47;100.00
63281;BME280;49406;51.044;3.766;2024-02-21T07:32:24;101850.72;;;9.46;100.00
63281;BME280;49406;51.044;3.766;2024-02-21T07:34:59;101844.65;;;9.42;100.00
63281;BME280;49406;51.044;3.766;2024-02-21T07:37:33;101839.08;;;9.49;100.00
63281;BME280;49406;51.044;3.766;2024-02-21T07:40:14;101833.38;;;9.51;100.00
63281;BME280;49406;51.044;3.766;2024-02-21T07:42:49;101831.02;;;9.54;100.00
63281;BME280;49406;51.044;3.766;2024-02-21T07:45:23;101825.85;;;9.56;100.00
63281;BME280;49406;51.044;3.766;2024-02-21T07:47:58;101829.52;;;9.56;100.00
63281;BME280;49406;51.044;3.766;2024-02-21T07:50:32;101823.88;;;9.55;100.00
63281;BME280;49406;51.044;3.766;2024-02-21T07:53:07;101816.02;;;9.54;100.00
63281;BME280;49406;51.044;3.766;2024-02-21T07:55:41;101810.97;;;9.60;100.00
63281;BME280;49406;51.044;3.766;2024-02-21T07:58:16;101804.91;;;9.63;100.00
63281;BME280;49406;51.044;3.766;2024-02-21T08:00:51;101803.58;;;9.65;100.00
63281;BME280;49406;51.044;3.766;2024-02-21T08:03:25;101797.73;;;9.69;100.00
63281;BME280;49406;51.044;3.766;2024-02-21T08:06:00;101795.50;;;9.70;100.00
63281;BME280;49406;51.044;3.766;2024-02-21T08:08:35;101797.40;;;9.69;100.00
63281;BME280;49406;51.044;3.766;2024-02-21T08:11:09;101792.84;;;9.69;100.00
63281;BME280;49406;51.044;3.766;2024-02-21T08:13:44;101785.42;;;9.72;100.00
63281;BME280;49406;51.044;3.766;2024-02-21T08:16:18;101787.18;;;9.78;100.00
63281;BME280;49406;51.044;3.766;2024-02-21T08:18:53;101783.96;;;9.82;100.00
63281;BME280;49406;51.044;3.766;2024-02-21T08:21:27;101771.02;;;9.81;100.00
63281;BME280;49406;51.044;3.766;2024-02-21T08:24:02;101761.95;;;9.83;100.00
63281;BME280;49406;51.044;3.766;2024-02-21T08:26:41;101750.12;;;9.84;100.00
63281;BME280;49406;51.044;3.766;2024-02-21T08:29:16;101749.38;;;9.82;100.00
63281;BME280;49406;51.044;3.766;2024-02-21T08:31:50;101740.44;;;9.81;100.00
63281;BME280;49406;51.044;3.766;2024-02-21T08:34:25;101732.70;;;9.86;100.00
63281;BME280;49406;51.044;3.766;2024-02-21T08:37:02;101724.89;;;9.88;100.00
63281;BME280;49406;51.044;3.766;2024-02-21T08:39:37;101725.27;;;9.89;100.00
63281;BME280;49406;51.044;3.766;2024-02-21T08:42:11;101713.17;;;9.87;100.00
63281;BME280;49406;51.044;3.766;2024-02-21T08:44:46;101712.40;;;9.84;100.00
63281;BME280;49406;51.044;3.766;2024-02-21T08:47:20;101706.73;;;9.88;100.00
63281;BME280;49406;51.044;3.766;2024-02-21T08:49:55;101697.45;;;9.87;100.00
63281;BME280;49406;51.044;3.766;2024-02-21T08:52:29;101691.86;;;9.87;100.00
63281;BME280;49406;51.044;3.766;2024-02-21T08:55:05;101697.58;;;9.86;100.00
63281;BME280;49406;51.044;3.766;2024-02-21T08:57:40;101699.13;;;9.84;100.00
63281;BME280;49406;51.044;3.766;2024-02-21T09:00:16;101699.96;;;9.82;100.00
63281;BME280;49406;51.044;3.766;2024-02-21T09:02:51;101692.02;;;9.87;100.00
63281;BME280;49406;51.044;3.766;2024-02-21T09:05:26;101679.31;;;9.94;100.00
63281;BME280;49406;51.044;3.766;2024-02-21T09:08:00;101672.73;;;9.98;100.00
63281;BME280;49406;51.044;3.766;2024-02-21T09:10:35;101656.31;;;9.98;100.00
63281;BME280;49406;51.044;3.766;2024-02-21T09:13:10;101639.95;;;9.93;100.00
63281;BME280;49406;51.044;3.766;2024-02-21T09:15:45;101626.95;;;9.96;100.00
63281;BME280;49406;51.044;3.766;2024-02-21T09:18:19;101616.69;;;10.07;100.00
63281;BME280;49406;51.044;3.766;2024-02-21T09:20:55;101614.92;;;10.13;100.00
63281;BME280;49406;51.044;3.766;2024-02-21T09:23:30;101623.48;;;10.14;100.00
63281;BME280;49406;51.044;3.766;2024-02-21T09:26:05;101616.48;;;10.13;100.00
63281;BME280;49406;51.044;3.766;2024-02-21T09:28:39;101618.36;;;10.19;100.00
63281;BME280;49406;51.044;3.766;2024-02-21T09:31:14;101616.96;;;10.25;100.00
63281;BME280;49406;51.044;3.766;2024-02-21T09:33:48;101615.18;;;10.32;100.00
63281;BME280;49406;51.044;3.766;2024-02-21T09:36:23;101608.62;;;10.36;100.00
63281;BME280;49406;51.044;3.766;2024-02-21T09:38:58;101610.21;;;10.37;100.00
63281;BME280;49406;51.044;3.766;2024-02-21T09:41:34;101607.37;;;10.42;100.00
63281;BME280;49406;51.044;3.766;2024-02-21T09:44:14;101603.59;;;10.45;100.00
63281;BME280;49406;51.044;3.766;2024-02-21T09:46:55;101598.21;;;10.48;100.00
63281;BME280;49406;51.044;3.766;2024-02-21T09:49:33;101583.81;;;10.45;100.00
63281;BME280;49406;51.044;3.766;2024-02-21T09:52:11;101579.63;;;10.45;100.00
63281;BME280;49406;51.044;3.766;2024-02-21T09:54:48;101579.44;;;10.53;100.00
63281;BME280;49406;51.044;3.766;2024-02-21T09:57:25;101583.46;;;10.62;100.00
63281;BME280;49406;51.044;3.766;2024-02-21T10:00:00;101582.98;;;10.64;100.00
63281;BME280;49406;51.044;3.766;2024-02-21T10:02:41;101581.27;;;10.66;100.00
63281;BME280;49406;51.044;3.766;2024-02-21T10:05:16;101571.89;;;10.60;100.00
63281;BME280;49406;51.044;3.766;2024-02-21T10:07:51;101566.93;;;10.58;100.00
63281;BME280;49406;51.044;3.766;2024-02-21T10:10:25;101563.19;;;10.62;100.00
63281;BME280;49406;51.044;3.766;2024-02-21T10:13:00;101552.24;;;10.66;100.00
63281;BME280;49406;51.044;3.766;2024-02-21T10:15:35;101555.52;;;10.63;100.00
63281;BME280;49406;51.044;3.766;2024-02-21T10:18:10;101552.82;;;10.60;100.00
63281;BME280;49406;51.044;3.766;2024-02-21T10:20:44;101540.80;;;10.62;100.00
63281;BME280;49406;51.044;3.766;2024-02-21T10:23:19;101523.60;;;10.68;100.00
63281;BME280;49406;51.044;3.766;2024-02-21T10:25:53;101514.42;;;10.74;100.00
63281;BME280;49406;51.044;3.766;2024-02-21T10:28:28;101510.83;;;10.77;100.00
63281;BME280;49406;51.044;3.766;2024-02-21T10:31:03;101508.25;;;10.80;100.00
63281;BME280;49406;51.044;3.766;2024-02-21T10:33:38;101495.71;;;10.83;100.00
63281;BME280;49406;51.044;3.766;2024-02-21T10:36:13;101499.11;;;10.88;100.00
63281;BME280;49406;51.044;3.766;2024-02-21T10:38:48;101497.90;;;10.89;100.00
63281;BME280;49406;51.044;3.766;2024-02-21T10:41:23;101497.00;;;10.87;100.00
63281;BME280;49406;51.044;3.766;2024-02-21T10:43:59;101488.65;;;10.90;100.00
63281;BME280;49406;51.044;3.766;2024-02-21T10:46:37;101491.79;;;10.99;100.00
63281;BME280;49406;51.044;3.766;2024-02-21T10:49:16;101489.70;;;11.00;100.00
63281;BME280;49406;51.044;3.766;2024-02-21T10:51:58;101487.13;;;10.92;100.00
63281;BME280;49406;51.044;3.766;2024-02-21T10:54:43;101479.70;;;10.88;100.00
63281;BME280;49406;51.044;3.766;2024-02-21T10:57:19;101480.83;;;10.92;100.00
63281;BME280;49406;51.044;3.766;2024-02-21T10:59:55;101473.38;;;10.96;100.00
63281;BME280;49406;51.044;3.766;2024-02-21T11:02:30;101453.75;;;10.94;100.00
63281;BME280;49406;51.044;3.766;2024-02-21T11:05:06;101448.67;;;10.84;100.00
63281;BME280;49406;51.044;3.766;2024-02-21T11:07:41;101448.60;;;10.79;100.00
63281;BME280;49406;51.044;3.766;2024-02-21T11:10:24;101435.02;;;10.84;100.00
63281;BME280;49406;51.044;3.766;2024-02-21T11:13:08;101431.43;;;10.89;100.00
63281;BME280;49406;51.044;3.766;2024-02-21T11:15:43;101431.23;;;10.87;100.00
63281;BME280;49406;51.044;3.766;2024-02-21T11:18:26;101435.55;;;10.84;100.00
63281;BME280;49406;51.044;3.766;2024-02-21T11:21:00;101430.86;;;10.86;100.00
63281;BME280;49406;51.044;3.766;2024-02-21T11:23:36;101422.96;;;10.84;100.00
63281;BME280;49406;51.044;3.766;2024-02-21T11:26:17;101394.06;;;10.82;100.00
63281;BME280;49406;51.044;3.766;2024-02-21T11:28:59;101382.28;;;10.77;100.00
63281;BME280;49406;51.044;3.766;2024-02-21T11:31:44;101382.25;;;10.76;100.00
63281;BME280;49406;51.044;3.766;2024-02-21T11:34:20;101378.14;;;10.80;100.00
63281;BME280;49406;51.044;3.766;2024-02-21T11:36:55;101372.77;;;10.84;100.00
63281;BME280;49406;51.044;3.766;2024-02-21T11:39:29;101367.69;;;10.84;100.00
63281;BME280;49406;51.044;3.766;2024-02-21T11:42:06;101366.08;;;10.81;100.00
63281;BME280;49406;51.044;3.766;2024-02-21T11:44:41;101360.35;;;10.85;100.00
63281;BME280;49406;51.044;3.766;2024-02-21T11:47:16;101360.52;;;10.84;100.00
63281;BME280;49406;51.044;3.766;2024-02-21T11:49:54;101348.98;;;10.85;100.00
63281;BME280;49406;51.044;3.766;2024-02-21T11:52:28;101341.49;;;10.75;100.00
63281;BME280;49406;51.044;3.766;2024-02-21T11:55:03;101339.70;;;10.73;100.00
63281;BME280;49406;51.044;3.766;2024-02-21T11:57:38;101327.92;;;10.79;100.00
63281;BME280;49406;51.044;3.766;2024-02-21T12:00:18;101318.20;;;10.84;100.00
63281;BME280;49406;51.044;3.766;2024-02-21T12:02:54;101326.08;;;10.85;100.00
63281;BME280;49406;51.044;3.766;2024-02-21T12:05:35;101330.54;;;10.79;100.00
63281;BME280;49406;51.044;3.766;2024-02-21T12:08:09;101324.60;;;10.80;100.00
63281;BME280;49406;51.044;3.766;2024-02-21T12:10:44;101307.33;;;10.82;100.00
63281;BME280;49406;51.044;3.766;2024-02-21T12:13:25;101305.90;;;10.80;100.00
63281;BME280;49406;51.044;3.766;2024-02-21T12:16:00;101286.64;;;10.79;100.00
63281;BME280;49406;51.044;3.766;2024-02-21T12:18:34;101275.65;;;10.81;100.00
63281;BME280;49406;51.044;3.766;2024-02-21T12:21:09;101258.23;;;10.87;100.00
63281;BME280;49406;51.044;3.766;2024-02-21T12:23:44;101251.91;;;10.84;100.00
63281;BME280;49406;51.044;3.766;2024-02-21T12:26:20;101249.77;;;10.82;100.00
63281;BME280;49406;51.044;3.766;2024-02-21T12:28:54;101239.50;;;10.85;100.00
63281;BME280;49406;51.044;3.766;2024-02-21T12:31:29;101234.36;;;10.93;100.00
63281;BME280;49406;51.044;3.766;2024-02-21T12:34:04;101228.63;;;10.96;100.00
63281;BME280;49406;51.044;3.766;2024-02-21T12:36:42;101225.48;;;10.96;100.00
63281;BME280;49406;51.044;3.766;2024-02-21T12:39:17;101216.13;;;10.91;100.00
63281;BME280;49406;51.044;3.766;2024-02-21T12:41:51;101202.87;;;10.94;100.00
63281;BME280;49406;51.044;3.766;2024-02-21T12:44:27;101192.66;;;11.03;100.00
63281;BME280;49406;51.044;3.766;2024-02-21T12:47:01;101177.45;;;11.05;100.00
63281;BME280;49406;51.044;3.766;2024-02-21T12:49:36;101183.06;;;11.05;100.00
63281;BME280;49406;51.044;3.766;2024-02-21T12:52:11;101172.09;;;11.09;100.00
63281;BME280;49406;51.044;3.766;2024-02-21T12:54:46;101160.26;;;11.14;100.00
63281;BME280;49406;51.044;3.766;2024-02-21T12:57:21;101169.73;;;11.18;100.00
63281;BME280;49406;51.044;3.766;2024-02-21T12:59:55;101166.06;;;11.19;100.00
63281;BME280;49406;51.044;3.766;2024-02-21T13:02:30;101159.41;;;11.19;100.00
63281;BME280;49406;51.044;3.766;2024-02-21T13:05:06;101146.80;;;11.18;100.00
63281;BME280;49406;51.044;3.766;2024-02-21T13:07:41;101134.25;;;11.23;100.00
63281;BME280;49406;51.044;3.766;2024-02-21T13:10:14;101127.08;;;11.23;100.00
63281;BME280;49406;51.044;3.766;2024-02-21T13:12:48;101116.35;;;11.16;100.00
63281;BME280;49406;51.044;3.766;2024-02-21T13:15:23;101109.69;;;11.15;100.00
63281;BME280;49406;51.044;3.766;2024-02-21T13:17:57;101101.64;;;11.13;100.00
63281;BME280;49406;51.044;3.766;2024-02-21T13:20:32;101092.09;;;11.06;100.00
63281;BME280;49406;51.044;3.766;2024-02-21T13:23:07;101080.12;;;10.98;100.00
63281;BME280;49406;51.044;3.766;2024-02-21T13:25:41;101073.35;;;10.88;100.00